createdAt,value
2022-12-04T00:01:45.342Z,8.77
2022-12-04T00:04:13.599Z,7.47
2022-12-04T00:06:42.181Z,13.63
2022-12-04T00:09:11.130Z,8.95
2022-12-04T00:11:39.827Z,16.05
2022-12-04T00:14:09.715Z,7.75
2022-12-04T00:16:38.451Z,12.25
2022-12-04T00:19:07.554Z,13.13
2022-12-04T00:21:36.449Z,8.38
2022-12-04T00:24:05.523Z,9.85
2022-12-04T00:26:34.405Z,10.93
2022-12-04T00:29:02.661Z,10.90
2022-12-04T00:31:32.510Z,18.33
2022-12-04T00:34:02.085Z,11.45
2022-12-04T00:36:31.358Z,13.38
2022-12-04T00:39:01.312Z,11.30
2022-12-04T00:41:31.580Z,10.20
2022-12-04T00:44:01.507Z,11.98
2022-12-04T00:46:30.308Z,13.50
2022-12-04T00:48:58.560Z,12.75
2022-12-04T00:51:27.179Z,10.10
2022-12-04T00:53:55.832Z,13.10
2022-12-04T00:56:27.393Z,19.88
2022-12-04T00:58:57.976Z,16.67
2022-12-04T01:01:27.814Z,17.63
2022-12-04T01:03:57.001Z,12.35
2022-12-04T01:06:28.427Z,11.98
2022-12-04T01:08:58.702Z,7.60
2022-12-04T01:11:28.671Z,13.00
2022-12-04T01:13:58.373Z,9.68
2022-12-04T01:16:31.026Z,12.43
2022-12-04T01:19:00.265Z,11.75
2022-12-04T01:21:28.670Z,8.65
2022-12-04T01:23:57.294Z,22.80
2022-12-04T01:26:25.965Z,15.10
2022-12-04T01:28:54.630Z,14.25
2022-12-04T01:31:23.924Z,10.45
2022-12-04T01:33:53.152Z,24.45
2022-12-04T01:36:24.730Z,17.10
2022-12-04T01:38:53.260Z,10.13
2022-12-04T01:41:25.859Z,10.07
2022-12-04T01:44:14.981Z,9.35
2022-12-04T01:46:45.614Z,13.35
2022-12-04T01:49:42.641Z,10.77
2022-12-04T01:52:21.134Z,15.43
2022-12-04T01:54:59.303Z,10.98
2022-12-04T01:57:32.110Z,11.85
2022-12-04T02:00:05.811Z,8.98
2022-12-04T02:02:37.393Z,9.65
2022-12-04T02:05:08.702Z,22.92
2022-12-04T02:07:39.836Z,9.38
2022-12-04T02:10:09.896Z,10.13
2022-12-04T02:12:56.988Z,11.70
2022-12-04T02:15:28.371Z,11.35
2022-12-04T02:18:20.094Z,7.50
2022-12-04T02:21:09.791Z,17.20
2022-12-04T02:23:47.259Z,10.15
2022-12-04T02:26:33.531Z,15.88
2022-12-04T02:29:12.830Z,10.13
2022-12-04T02:32:20.526Z,9.23
2022-12-04T02:34:54.846Z,13.98
2022-12-04T02:37:53.014Z,15.27
2022-12-04T02:40:34.343Z,8.43
2022-12-04T02:43:14.924Z,10.57
2022-12-04T02:45:48.935Z,20.45
2022-12-04T02:48:20.572Z,14.98
2022-12-04T02:50:52.734Z,20.83
2022-12-04T02:55:58.192Z,13.35
2022-12-04T02:58:36.904Z,10.07
2022-12-04T03:01:10.259Z,12.38
2022-12-04T03:03:38.823Z,17.17
2022-12-04T03:06:11.815Z,9.35
2022-12-04T03:08:55.254Z,9.70
2022-12-04T03:11:25.070Z,12.18
2022-12-04T03:14:12.390Z,11.88
2022-12-04T03:16:42.261Z,9.27
2022-12-04T03:19:16.597Z,20.65
2022-12-04T03:21:56.900Z,14.73
2022-12-04T03:24:31.808Z,25.70
2022-12-04T03:27:21.410Z,17.77
2022-12-04T03:30:14.899Z,18.13
2022-12-04T03:33:10.894Z,17.40
2022-12-04T03:35:39.133Z,14.55
2022-12-04T03:38:37.460Z,21.25
2022-12-04T03:41:23.993Z,19.25
2022-12-04T03:44:15.813Z,20.70
2022-12-04T03:47:08.209Z,16.33
2022-12-04T03:49:51.920Z,18.15
2022-12-04T03:52:40.234Z,20.58
2022-12-04T03:55:18.958Z,18.52
2022-12-04T03:57:48.647Z,13.85
2022-12-04T04:00:21.073Z,18.13
2022-12-04T04:03:07.059Z,16.02
2022-12-04T04:05:37.454Z,13.68
2022-12-04T04:08:08.411Z,19.30
2022-12-04T04:10:36.828Z,16.25
2022-12-04T04:13:05.655Z,19.95
2022-12-04T04:15:34.193Z,25.00
2022-12-04T04:18:03.518Z,21.27
2022-12-04T04:20:38.740Z,22.13
2022-12-04T04:23:09.784Z,22.85
2022-12-04T04:25:40.737Z,18.40
2022-12-04T04:28:29.898Z,15.55
2022-12-04T04:31:06.736Z,16.98
2022-12-04T04:33:43.097Z,19.63
2022-12-04T04:36:24.075Z,18.27
2022-12-04T04:39:00.418Z,13.85
2022-12-04T04:41:40.474Z,24.33
2022-12-04T04:44:47.479Z,23.30
2022-12-04T04:47:28.967Z,18.80
2022-12-04T04:49:59.357Z,26.02
2022-12-04T04:52:28.704Z,18.52
2022-12-04T04:54:59.991Z,13.75
2022-12-04T04:57:30.678Z,15.63
2022-12-04T04:59:59.014Z,15.32
2022-12-04T05:02:28.254Z,12.27
2022-12-04T05:04:56.604Z,16.02
2022-12-04T05:07:24.796Z,14.82
2022-12-04T05:09:52.984Z,23.42
2022-12-04T05:12:21.418Z,11.75
2022-12-04T05:14:49.925Z,11.95
2022-12-04T05:17:18.092Z,18.15
2022-12-04T05:19:46.569Z,12.20
2022-12-04T05:22:14.915Z,9.00
2022-12-04T05:24:42.994Z,15.38
2022-12-04T05:27:11.335Z,7.22
2022-12-04T05:29:39.562Z,10.70
2022-12-04T05:32:07.775Z,9.27
2022-12-04T05:34:36.088Z,12.88
2022-12-04T05:37:04.321Z,10.25
2022-12-04T05:39:32.628Z,20.02
2022-12-04T05:42:00.905Z,11.35
2022-12-04T05:44:29.139Z,8.93
2022-12-04T05:46:57.273Z,9.65
2022-12-04T05:49:25.672Z,11.77
2022-12-04T05:51:53.958Z,8.85
2022-12-04T05:54:22.409Z,14.65
2022-12-04T05:56:50.824Z,16.70
2022-12-04T05:59:19.724Z,22.42
2022-12-04T06:01:48.077Z,25.33
2022-12-04T06:04:16.672Z,14.32
2022-12-04T06:06:44.943Z,13.45
2022-12-04T06:09:14.251Z,16.92
2022-12-04T06:11:44.042Z,6.97
2022-12-04T06:14:15.032Z,8.88
2022-12-04T06:16:45.978Z,10.60
2022-12-04T06:19:17.808Z,16.23
2022-12-04T06:21:48.085Z,11.07
2022-12-04T06:24:23.880Z,9.98
2022-12-04T06:29:44.186Z,14.77
2022-12-04T06:32:16.343Z,13.93
2022-12-04T06:34:49.938Z,10.60
2022-12-04T06:37:18.353Z,9.88
2022-12-04T06:39:46.693Z,10.27
2022-12-04T06:42:15.007Z,16.27
2022-12-04T06:44:43.424Z,16.92
2022-12-04T06:47:11.570Z,13.50
2022-12-04T06:49:39.798Z,14.60
2022-12-04T06:52:08.089Z,14.18
2022-12-04T06:54:36.165Z,23.55
2022-12-04T06:57:04.428Z,17.58
2022-12-04T06:59:32.607Z,21.02
2022-12-04T07:02:00.975Z,22.85
2022-12-04T07:04:29.424Z,22.08
2022-12-04T07:06:57.576Z,18.63
2022-12-04T07:09:25.893Z,16.73
2022-12-04T07:11:54.220Z,19.83
2022-12-04T07:14:22.624Z,20.50
2022-12-04T07:16:51.064Z,16.52
2022-12-04T07:19:19.232Z,16.75
2022-12-04T07:21:47.681Z,22.10
2022-12-04T07:24:17.490Z,22.95
2022-12-04T07:26:46.739Z,13.27
2022-12-04T07:29:15.249Z,23.20
2022-12-04T07:31:43.674Z,15.20
2022-12-04T07:34:11.881Z,11.63
2022-12-04T07:36:40.939Z,13.65
2022-12-04T07:39:09.780Z,10.82
2022-12-04T07:41:38.296Z,10.68
2022-12-04T07:44:08.936Z,26.27
2022-12-04T07:46:37.319Z,10.95
2022-12-04T07:49:05.658Z,10.23
2022-12-04T07:51:34.243Z,9.07
2022-12-04T07:54:04.354Z,11.85
2022-12-04T07:56:33.973Z,15.27
2022-12-04T07:59:05.507Z,13.55
2022-12-04T08:01:34.550Z,11.18
2022-12-04T08:04:03.284Z,10.43
2022-12-04T08:06:34.811Z,9.73
2022-12-04T08:09:09.272Z,9.15
2022-12-04T08:11:38.431Z,13.48
2022-12-04T08:14:07.524Z,9.55
2022-12-04T08:16:36.347Z,8.70
2022-12-04T08:19:05.012Z,11.25
2022-12-04T08:21:34.029Z,20.73
2022-12-04T08:24:03.338Z,13.02
2022-12-04T08:26:32.604Z,14.93
2022-12-04T08:29:01.659Z,9.60
2022-12-04T08:31:32.565Z,7.95
2022-12-04T08:34:02.957Z,9.15
2022-12-04T08:36:31.543Z,17.02
2022-12-04T08:39:01.409Z,7.70
2022-12-04T08:41:31.963Z,14.80
2022-12-04T08:44:00.903Z,4.68
2022-12-04T08:46:30.260Z,9.73
2022-12-04T08:48:59.439Z,9.35
2022-12-04T08:51:30.413Z,7.95
2022-12-04T08:56:31.525Z,9.00
2022-12-04T09:01:31.095Z,8.05
2022-12-04T09:04:00.589Z,6.30
2022-12-04T09:06:30.015Z,9.57
2022-12-04T09:08:59.113Z,10.13
2022-12-04T09:11:29.821Z,5.85
2022-12-04T09:13:59.008Z,8.40
2022-12-04T09:16:27.924Z,9.27
2022-12-04T09:18:57.106Z,8.27
2022-12-04T09:21:26.498Z,13.20
2022-12-04T09:23:59.113Z,10.00
2022-12-04T09:26:34.912Z,20.38
2022-12-04T09:29:05.908Z,8.60
2022-12-04T09:31:35.621Z,13.77
2022-12-04T09:34:05.870Z,7.85
2022-12-04T09:36:34.816Z,5.03
2022-12-04T09:39:04.828Z,12.48
2022-12-04T09:41:46.785Z,8.55
2022-12-04T09:47:06.290Z,9.93
2022-12-04T09:49:54.455Z,5.30
2022-12-04T09:52:33.091Z,7.10
2022-12-04T09:55:04.631Z,9.60
2022-12-04T10:00:12.501Z,4.20
2022-12-04T10:02:50.348Z,7.93
2022-12-04T10:05:27.678Z,6.68
2022-12-04T10:08:39.234Z,8.70
2022-12-04T10:11:32.582Z,13.90
2022-12-04T10:14:28.755Z,7.38
2022-12-04T10:17:10.844Z,7.38
2022-12-04T10:20:04.024Z,4.75
2022-12-04T10:22:41.283Z,4.22
2022-12-04T10:25:15.715Z,11.52
2022-12-04T10:27:52.959Z,8.00
2022-12-04T10:30:27.411Z,9.07
2022-12-04T10:33:14.668Z,11.45
2022-12-04T10:35:45.312Z,8.20
2022-12-04T10:38:45.125Z,6.95
2022-12-04T10:41:38.374Z,12.52
2022-12-04T10:44:13.117Z,9.90
2022-12-04T10:46:46.613Z,7.72
2022-12-04T10:49:26.376Z,9.25
2022-12-04T10:51:55.662Z,5.63
2022-12-04T10:54:32.760Z,8.40
2022-12-04T10:57:07.009Z,4.93
2022-12-04T10:59:39.901Z,10.27
2022-12-04T11:02:31.130Z,5.63
2022-12-04T11:05:02.413Z,13.82
2022-12-04T11:07:36.731Z,5.03
2022-12-04T11:10:24.639Z,6.85
2022-12-04T11:13:05.404Z,7.60
2022-12-04T11:15:43.179Z,4.85
2022-12-04T11:18:21.145Z,6.55
2022-12-04T11:20:57.581Z,4.53
2022-12-04T11:23:27.260Z,7.70
2022-12-04T11:26:03.826Z,4.30
2022-12-04T11:28:41.758Z,7.65
2022-12-04T11:31:17.255Z,5.88
2022-12-04T11:34:07.689Z,6.95
2022-12-04T11:36:41.637Z,5.65
2022-12-04T11:39:35.091Z,4.40
2022-12-04T11:42:23.169Z,5.25
2022-12-04T11:44:56.870Z,5.63
2022-12-04T11:47:28.278Z,8.57
2022-12-04T11:50:06.884Z,6.53
2022-12-04T11:52:38.781Z,8.30
2022-12-04T11:55:21.278Z,8.13
2022-12-04T11:58:13.632Z,13.90
2022-12-04T12:01:00.162Z,8.73
2022-12-04T12:03:58.418Z,9.10
2022-12-04T12:06:37.468Z,4.93
2022-12-04T12:09:15.110Z,8.82
2022-12-04T12:11:57.886Z,6.38
2022-12-04T12:14:29.322Z,5.70
2022-12-04T12:17:34.676Z,9.00
2022-12-04T12:20:08.860Z,23.13
2022-12-04T12:23:03.218Z,14.70
2022-12-04T12:25:52.458Z,17.67
2022-12-04T12:28:57.647Z,14.23
2022-12-04T12:32:02.767Z,15.60
2022-12-04T12:34:40.844Z,9.35
2022-12-04T12:37:18.209Z,10.52
2022-12-04T12:40:00.477Z,16.63
2022-12-04T12:42:47.811Z,12.70
2022-12-04T12:45:41.309Z,14.27
2022-12-04T12:48:21.852Z,11.27
2022-12-04T12:51:22.226Z,10.60
2022-12-04T12:53:54.504Z,28.92
2022-12-04T12:56:47.791Z,16.58
2022-12-04T12:59:24.772Z,12.13
2022-12-04T13:02:26.501Z,7.95
2022-12-04T13:05:01.968Z,14.70
2022-12-04T13:07:51.791Z,22.17
2022-12-04T13:10:36.028Z,17.17
2022-12-04T13:13:20.581Z,22.70
2022-12-04T13:16:14.236Z,24.83
2022-12-04T13:18:58.028Z,25.27
2022-12-04T13:21:36.743Z,30.38
2022-12-04T13:24:35.891Z,18.25
2022-12-04T13:27:30.763Z,10.10
2022-12-04T13:30:20.442Z,8.65
2022-12-04T13:33:07.468Z,12.02
2022-12-04T13:35:55.828Z,9.70
2022-12-04T13:38:39.075Z,7.68
2022-12-04T13:41:11.570Z,22.80
2022-12-04T13:43:42.949Z,13.25
2022-12-04T13:46:29.711Z,9.45
2022-12-04T13:49:18.243Z,13.77
2022-12-04T13:51:48.391Z,12.88
2022-12-04T13:54:16.831Z,9.65
2022-12-04T13:56:48.035Z,19.30
2022-12-04T13:59:37.210Z,13.80
2022-12-04T14:02:36.609Z,9.38
2022-12-04T14:05:15.234Z,15.48
2022-12-04T14:08:07.185Z,17.80
2022-12-04T14:10:39.262Z,9.90
2022-12-04T14:13:29.029Z,16.63
2022-12-04T14:16:22.175Z,7.85
2022-12-04T14:18:56.790Z,6.43
2022-12-04T14:21:26.072Z,7.97
2022-12-04T14:23:54.509Z,9.00
2022-12-04T14:26:48.970Z,6.43
2022-12-04T14:29:52.545Z,5.95
2022-12-04T14:32:29.912Z,8.75
2022-12-04T14:34:59.060Z,11.35
2022-12-04T14:37:38.380Z,6.90
2022-12-04T14:40:15.915Z,5.75
2022-12-04T14:42:47.585Z,7.53
2022-12-04T14:46:00.050Z,11.32
2022-12-04T14:51:20.238Z,6.35
2022-12-04T14:54:07.084Z,8.20
2022-12-04T14:57:10.539Z,9.65
2022-12-04T14:59:51.616Z,5.20
2022-12-04T15:02:27.466Z,7.40
2022-12-04T15:04:57.430Z,6.32
2022-12-04T15:07:32.323Z,8.32
2022-12-04T15:10:03.456Z,4.03
2022-12-04T15:12:32.445Z,4.07
2022-12-04T15:15:25.292Z,6.28
2022-12-04T15:18:15.614Z,10.25
2022-12-04T15:20:49.959Z,8.55
2022-12-04T15:23:34.516Z,3.55
2022-12-04T15:26:17.369Z,12.50
2022-12-04T15:29:07.019Z,6.00
2022-12-04T15:31:47.166Z,6.88
2022-12-04T15:34:22.378Z,5.95
2022-12-04T15:37:01.956Z,4.05
2022-12-04T15:39:33.168Z,7.47
2022-12-04T15:42:30.628Z,6.07
2022-12-04T15:44:59.085Z,5.00
2022-12-04T15:47:30.505Z,15.18
2022-12-04T15:50:19.976Z,6.47
2022-12-04T15:53:08.237Z,8.15
2022-12-04T15:55:58.012Z,3.05
2022-12-04T15:58:29.670Z,6.55
2022-12-04T16:01:02.037Z,5.40
2022-12-04T16:03:39.011Z,4.95
2022-12-04T16:06:15.997Z,6.10
2022-12-04T16:08:47.130Z,7.38
2022-12-04T16:11:21.263Z,6.45
2022-12-04T16:14:03.433Z,8.18
2022-12-04T16:16:32.410Z,4.45
2022-12-04T16:19:03.742Z,4.50
2022-12-04T16:21:32.894Z,5.13
2022-12-04T16:24:08.378Z,5.63
2022-12-04T16:26:36.526Z,10.90
2022-12-04T16:29:05.022Z,5.10
2022-12-04T16:31:33.272Z,5.28
2022-12-04T16:34:01.827Z,6.65
2022-12-04T16:36:30.034Z,4.90
2022-12-04T16:38:58.451Z,12.85
2022-12-04T16:41:26.966Z,9.60
2022-12-04T16:43:58.750Z,9.43
2022-12-04T16:49:01.489Z,6.85
2022-12-04T16:51:32.799Z,7.03
2022-12-04T16:54:01.210Z,4.63
2022-12-04T16:56:29.473Z,6.05
2022-12-04T16:58:57.732Z,5.15
2022-12-04T17:01:34.924Z,7.65
2022-12-04T17:04:03.407Z,5.00
2022-12-04T17:06:31.899Z,8.82
2022-12-04T17:09:00.492Z,4.45
2022-12-04T17:11:28.619Z,7.07
2022-12-04T17:13:57.000Z,11.07
2022-12-04T17:16:25.304Z,6.85
2022-12-04T17:18:55.636Z,5.70
2022-12-04T17:21:24.347Z,6.47
2022-12-04T17:23:52.917Z,8.48
2022-12-04T17:26:22.052Z,9.23
2022-12-04T17:28:51.788Z,5.72
2022-12-04T17:31:27.575Z,3.17
2022-12-04T17:33:58.114Z,8.85
2022-12-04T17:36:27.954Z,2.92
2022-12-04T17:38:59.108Z,4.22
2022-12-04T17:41:27.679Z,5.03
2022-12-04T17:43:56.390Z,7.30
2022-12-04T17:46:25.052Z,11.88
2022-12-04T17:48:56.051Z,7.20
2022-12-04T17:51:26.015Z,6.03
2022-12-04T17:53:56.627Z,4.28
2022-12-04T17:56:26.148Z,9.80
2022-12-04T17:58:54.872Z,5.63
2022-12-04T18:01:30.759Z,8.63
2022-12-04T18:04:02.202Z,6.15
2022-12-04T18:06:36.529Z,5.50
2022-12-04T18:09:06.573Z,14.25
2022-12-04T18:11:37.809Z,5.32
2022-12-04T18:14:12.255Z,7.85
2022-12-04T18:16:48.233Z,5.38
2022-12-04T18:19:16.977Z,20.17
2022-12-04T18:21:45.373Z,5.50
2022-12-04T18:24:27.964Z,6.47
2022-12-04T18:26:56.592Z,6.68
2022-12-04T18:29:26.729Z,12.90
2022-12-04T18:31:55.914Z,6.32
2022-12-04T18:34:24.649Z,8.77
2022-12-04T18:36:53.171Z,9.00
2022-12-04T18:39:24.305Z,9.88
2022-12-04T18:41:57.592Z,10.60
2022-12-04T18:44:26.707Z,7.53
2022-12-04T18:46:55.676Z,10.30
2022-12-04T18:49:24.306Z,12.55
2022-12-04T18:51:52.734Z,15.55
2022-12-04T18:54:23.823Z,6.82
2022-12-04T18:56:52.842Z,9.38
2022-12-04T18:59:24.212Z,12.13
2022-12-04T19:01:56.469Z,11.43
2022-12-04T19:04:26.375Z,14.98
2022-12-04T19:06:56.507Z,8.40
2022-12-04T19:09:54.315Z,7.78
2022-12-04T19:12:17.063Z,11.57
2022-12-04T19:14:45.466Z,9.38
2022-12-04T19:17:20.473Z,12.70
2022-12-04T19:19:49.373Z,16.27
2022-12-04T19:22:18.163Z,10.75
2022-12-04T19:24:47.988Z,17.08
2022-12-04T19:27:16.636Z,27.95
2022-12-04T19:29:46.287Z,15.93
2022-12-04T19:32:15.240Z,18.88
2022-12-04T19:34:45.390Z,15.98
2022-12-04T19:37:14.535Z,12.40
2022-12-04T19:39:44.663Z,19.92
2022-12-04T19:42:16.479Z,16.00
2022-12-04T19:44:49.118Z,12.60
2022-12-04T19:47:19.786Z,12.30
2022-12-04T19:49:49.394Z,14.95
2022-12-04T19:52:18.344Z,16.63
2022-12-04T19:54:47.115Z,9.90
2022-12-04T19:57:16.436Z,14.63
2022-12-04T19:59:58.002Z,20.13
2022-12-04T20:02:27.470Z,14.38
2022-12-04T20:04:55.860Z,14.00
2022-12-04T20:07:25.660Z,13.85
2022-12-04T20:09:57.438Z,15.70
2022-12-04T20:12:26.712Z,14.23
2022-12-04T20:14:56.282Z,20.00
2022-12-04T20:17:25.364Z,12.45
2022-12-04T20:19:54.107Z,20.30
2022-12-04T20:22:24.482Z,23.35
2022-12-04T20:24:57.725Z,8.60
2022-12-04T20:27:29.403Z,14.55
2022-12-04T20:29:59.159Z,10.68
2022-12-04T20:32:28.367Z,14.27
2022-12-04T20:34:56.767Z,10.45
2022-12-04T20:37:27.071Z,15.43
2022-12-04T20:39:55.785Z,14.35
2022-12-04T20:42:31.791Z,12.40
2022-12-04T20:45:02.951Z,17.90
2022-12-04T20:47:31.869Z,24.10
2022-12-04T20:50:00.259Z,8.75
2022-12-04T20:52:28.761Z,11.32
2022-12-04T20:54:57.210Z,10.10
2022-12-04T20:57:32.302Z,10.05
2022-12-04T21:00:02.223Z,9.70
2022-12-04T21:02:31.127Z,26.08
2022-12-04T21:05:01.135Z,13.13
2022-12-04T21:07:33.176Z,18.60
2022-12-04T21:12:30.509Z,21.90
2022-12-04T21:14:59.500Z,18.00
2022-12-04T21:17:31.302Z,19.20
2022-12-04T21:20:05.771Z,13.88
2022-12-04T21:22:36.454Z,15.63
2022-12-04T21:25:05.617Z,11.55
2022-12-04T21:27:35.712Z,17.00
2022-12-04T21:30:08.350Z,26.17
2022-12-04T21:32:37.427Z,20.02
2022-12-04T21:35:07.817Z,20.25
2022-12-04T21:37:37.917Z,18.15
2022-12-04T21:40:07.312Z,19.65
2022-12-04T21:42:36.703Z,23.58
2022-12-04T21:45:06.743Z,24.30
2022-12-04T21:47:39.670Z,18.13
2022-12-04T21:50:12.051Z,24.98
2022-12-04T21:52:40.952Z,21.65
2022-12-04T21:55:10.266Z,24.58
2022-12-04T21:57:39.042Z,31.83
2022-12-04T22:00:08.645Z,16.65
2022-12-04T22:02:38.852Z,25.48
2022-12-04T22:05:07.585Z,24.73
2022-12-04T22:07:36.630Z,20.48
2022-12-04T22:10:10.683Z,21.90
2022-12-04T22:12:50.056Z,21.42
2022-12-04T22:15:19.573Z,33.75
2022-12-04T22:17:47.947Z,41.53
2022-12-04T22:20:16.762Z,37.22
2022-12-04T22:22:45.473Z,39.08
2022-12-04T22:25:14.155Z,44.22
2022-12-04T22:27:42.944Z,32.95
2022-12-04T22:30:12.886Z,42.95
2022-12-04T22:32:43.264Z,44.50
2022-12-04T22:35:11.835Z,38.33
2022-12-04T22:37:44.378Z,28.25
2022-12-04T22:40:15.828Z,33.28
2022-12-04T22:42:44.753Z,27.33
2022-12-04T22:45:14.673Z,37.20
2022-12-04T22:47:43.052Z,30.88
2022-12-04T22:50:12.902Z,26.23
2022-12-04T22:52:41.716Z,22.42
2022-12-04T22:55:10.187Z,42.70
2022-12-04T22:57:39.004Z,21.83
2022-12-04T23:00:08.382Z,32.05
2022-12-04T23:02:37.169Z,22.38
2022-12-04T23:05:06.126Z,23.90
2022-12-04T23:07:34.964Z,27.48
2022-12-04T23:10:04.055Z,24.73
2022-12-04T23:12:33.886Z,28.40
2022-12-04T23:15:03.274Z,32.08
2022-12-04T23:17:34.161Z,30.08
2022-12-04T23:20:04.367Z,22.70
2022-12-04T23:22:33.227Z,30.83
2022-12-04T23:25:01.876Z,31.20
2022-12-04T23:27:35.605Z,22.20
2022-12-04T23:30:04.774Z,34.40
2022-12-04T23:32:33.629Z,34.92
2022-12-04T23:35:02.085Z,26.73
2022-12-04T23:37:30.820Z,35.53
2022-12-04T23:39:59.814Z,33.55
2022-12-04T23:42:35.016Z,45.53
2022-12-04T23:45:03.610Z,31.65
2022-12-04T23:47:32.215Z,29.35
2022-12-04T23:50:01.531Z,28.52
2022-12-04T23:52:31.073Z,25.65
2022-12-04T23:54:59.549Z,25.30
2022-12-04T23:57:30.050Z,24.90
2022-12-04T23:59:58.380Z,30.20
